Terminal Aerodrome Forecast
Issued by NWS

Home | Current Version | Previous Version | Text Only | Print | Product List | Glossary On
Versions: 1 2 3 4 5 6 7 8 9 10 11 12 13
724
FTUS43 KICT 181120
TAFHUT
TAF
KHUT 181120Z 1812/1912 34026G34KT P6SM SCT015 BKN050
      TEMPO 1812/1815 BKN015
     FM181500 34026G34KT P6SM OVC045
     FM181700 34026G34KT P6SM SCT200
     FM182300 33015G23KT P6SM SKC
     FM190100 33010KT P6SM SKC=

USA.gov is the U.S. government's official web portal to all federal, state and local government web resources and services.